createdAt,value
2018-10-16T00:00:44.457Z,9.10
2018-10-16T00:03:12.821Z,9.10
2018-10-16T00:05:40.792Z,10.07
2018-10-16T00:08:08.943Z,9.43
2018-10-16T00:10:39.715Z,9.27
2018-10-16T00:13:09.562Z,10.33
2018-10-16T00:15:37.894Z,9.47
2018-10-16T00:18:06.794Z,9.50
2018-10-16T00:20:34.938Z,9.30
2018-10-16T00:23:03.092Z,9.70
2018-10-16T00:25:31.222Z,9.00
2018-10-16T00:27:59.406Z,9.47
2018-10-16T00:30:27.558Z,9.27
2018-10-16T00:32:55.727Z,9.00
2018-10-16T00:35:23.899Z,9.47
2018-10-16T00:37:52.087Z,10.77
2018-10-16T00:40:20.311Z,9.17
2018-10-16T00:42:48.493Z,8.63
2018-10-16T00:45:16.668Z,8.73
2018-10-16T00:47:44.842Z,9.40
2018-10-16T00:50:13.022Z,9.73
2018-10-16T00:52:41.166Z,9.93
2018-10-16T00:55:10.106Z,8.70
2018-10-16T00:57:38.916Z,9.30
2018-10-16T01:00:07.938Z,8.70
2018-10-16T01:02:36.109Z,9.07
2018-10-16T01:05:04.941Z,9.17
2018-10-16T01:07:33.095Z,9.30
2018-10-16T01:10:01.288Z,10.87
2018-10-16T01:12:29.464Z,8.73
2018-10-16T01:14:57.609Z,8.90
2018-10-16T01:17:25.775Z,9.03
2018-10-16T01:19:53.936Z,9.13
2018-10-16T01:22:22.115Z,9.03
2018-10-16T01:24:50.354Z,9.53
2018-10-16T01:27:19.323Z,9.37
2018-10-16T01:29:47.537Z,8.93
2018-10-16T01:32:15.718Z,8.83
2018-10-16T01:34:43.870Z,8.97
2018-10-16T01:37:12.061Z,9.53
2018-10-16T01:39:40.230Z,9.63
2018-10-16T01:42:08.394Z,9.33
2018-10-16T01:44:36.579Z,9.27
2018-10-16T01:47:04.838Z,8.80
2018-10-16T01:49:33.022Z,10.37
2018-10-16T01:52:01.166Z,9.13
2018-10-16T01:54:29.463Z,10.87
2018-10-16T01:56:57.639Z,9.37
2018-10-16T01:59:25.792Z,9.20
2018-10-16T02:01:54.016Z,9.47
2018-10-16T02:04:22.175Z,8.87
2018-10-16T02:06:50.548Z,9.57
2018-10-16T02:09:18.725Z,9.53
2018-10-16T02:11:46.898Z,9.53
2018-10-16T02:14:15.055Z,9.30
2018-10-16T02:16:43.211Z,9.10
2018-10-16T02:19:11.381Z,10.20
2018-10-16T02:21:39.553Z,10.60
2018-10-16T02:24:08.072Z,10.50
2018-10-16T02:26:36.350Z,11.47
2018-10-16T02:29:04.790Z,9.83
2018-10-16T02:31:32.935Z,9.60
2018-10-16T02:34:01.109Z,10.13
2018-10-16T02:36:29.293Z,11.20
2018-10-16T02:38:57.451Z,10.83
2018-10-16T02:41:25.606Z,9.90
2018-10-16T02:43:53.770Z,10.13
2018-10-16T02:46:21.952Z,10.37
2018-10-16T02:48:50.193Z,11.10
2018-10-16T02:51:18.358Z,10.47
2018-10-16T02:53:46.521Z,9.63
2018-10-16T02:56:14.671Z,9.60
2018-10-16T02:58:42.812Z,10.10
2018-10-16T03:01:10.955Z,9.93
2018-10-16T03:03:39.877Z,10.13
2018-10-16T03:06:08.055Z,9.70
2018-10-16T03:08:36.843Z,10.13
2018-10-16T03:11:05.478Z,10.50
2018-10-16T03:13:33.646Z,12.37
2018-10-16T03:16:01.806Z,10.20
2018-10-16T03:18:29.946Z,9.83
2018-10-16T03:20:58.095Z,9.83
2018-10-16T03:23:26.247Z,9.53
2018-10-16T03:25:54.400Z,9.80
2018-10-16T03:28:22.573Z,9.80
2018-10-16T03:30:50.745Z,10.20
2018-10-16T03:33:18.897Z,10.00
2018-10-16T03:35:47.039Z,10.20
2018-10-16T03:38:15.203Z,10.10
2018-10-16T03:40:43.483Z,9.77
2018-10-16T03:43:11.641Z,9.70
2018-10-16T03:45:39.794Z,10.17
2018-10-16T03:48:07.946Z,11.43
2018-10-16T03:50:36.099Z,18.47
2018-10-16T03:53:04.563Z,10.00
2018-10-16T03:55:32.762Z,10.00
2018-10-16T03:58:01.074Z,9.73
2018-10-16T04:00:29.223Z,10.43
2018-10-16T04:02:57.391Z,10.30
2018-10-16T04:05:25.539Z,9.50
2018-10-16T04:07:53.681Z,9.87
2018-10-16T04:10:21.843Z,10.20
2018-10-16T04:12:50.182Z,9.50
2018-10-16T04:15:18.331Z,9.93
2018-10-16T04:17:46.482Z,10.03
2018-10-16T04:20:14.633Z,9.70
2018-10-16T04:22:42.823Z,9.97
2018-10-16T04:25:10.990Z,10.23
2018-10-16T04:27:39.142Z,10.13
2018-10-16T04:30:07.476Z,9.77
2018-10-16T04:32:35.623Z,9.90
2018-10-16T04:35:09.161Z,9.83
2018-10-16T04:37:37.340Z,10.60
2018-10-16T04:40:06.110Z,9.27
2018-10-16T04:42:34.270Z,10.07
2018-10-16T04:45:02.503Z,10.57
2018-10-16T04:47:30.737Z,10.77
2018-10-16T04:49:58.965Z,9.60
2018-10-16T04:52:27.622Z,10.93
2018-10-16T04:54:55.912Z,10.53
2018-10-16T04:57:24.181Z,10.10
2018-10-16T04:59:52.374Z,11.27
2018-10-16T05:02:20.629Z,10.40
2018-10-16T05:04:48.867Z,10.43
2018-10-16T05:07:16.998Z,11.33
2018-10-16T05:09:45.111Z,10.27
2018-10-16T05:12:13.274Z,12.93
2018-10-16T05:14:41.430Z,10.43
2018-10-16T05:17:09.622Z,11.30
2018-10-16T05:19:37.790Z,10.87
2018-10-16T05:22:06.019Z,12.13
2018-10-16T05:24:34.119Z,10.53
2018-10-16T05:27:02.291Z,10.60
2018-10-16T05:29:30.545Z,11.20
2018-10-16T05:31:58.787Z,12.73
2018-10-16T05:34:26.918Z,11.73
2018-10-16T05:36:55.087Z,10.87
2018-10-16T05:39:23.311Z,10.67
2018-10-16T05:41:51.372Z,10.53
2018-10-16T05:44:19.518Z,10.77
2018-10-16T05:46:47.622Z,10.53
2018-10-16T05:49:15.846Z,10.57
2018-10-16T05:51:44.108Z,10.60
2018-10-16T05:54:12.285Z,11.67
2018-10-16T05:56:40.383Z,10.33
2018-10-16T05:59:08.546Z,11.00
2018-10-16T06:01:36.706Z,11.20
2018-10-16T06:04:04.981Z,10.27
2018-10-16T06:06:33.149Z,11.00
2018-10-16T06:09:01.284Z,12.50
2018-10-16T06:11:29.446Z,10.57
2018-10-16T06:13:57.638Z,10.50
2018-10-16T06:16:26.106Z,10.13
2018-10-16T06:18:54.274Z,12.87
2018-10-16T06:21:22.458Z,10.43
2018-10-16T06:23:50.683Z,10.70
2018-10-16T06:26:18.851Z,10.67
2018-10-16T06:28:47.017Z,11.87
2018-10-16T06:31:15.150Z,11.80
2018-10-16T06:33:43.293Z,11.37
2018-10-16T06:36:11.436Z,10.33
2018-10-16T06:38:39.558Z,10.33
2018-10-16T06:41:07.840Z,10.00
2018-10-16T06:43:35.878Z,10.10
2018-10-16T06:46:04.180Z,10.57
2018-10-16T06:48:32.561Z,9.63
2018-10-16T06:51:00.533Z,10.87
2018-10-16T06:53:28.779Z,11.30
2018-10-16T06:55:56.970Z,12.20
2018-10-16T06:58:25.123Z,12.23
2018-10-16T07:00:53.235Z,12.50
2018-10-16T07:03:21.374Z,11.37
2018-10-16T07:05:49.494Z,12.03
2018-10-16T07:08:17.715Z,12.17
2018-10-16T07:10:45.826Z,11.20
2018-10-16T07:13:13.971Z,11.53
2018-10-16T07:15:42.120Z,12.60
2018-10-16T07:18:10.262Z,10.87
2018-10-16T07:20:38.379Z,11.20
2018-10-16T07:23:06.566Z,11.30
2018-10-16T07:25:34.713Z,10.70
2018-10-16T07:28:02.846Z,11.50
2018-10-16T07:30:31.003Z,13.20
2018-10-16T07:32:59.154Z,14.27
2018-10-16T07:35:27.345Z,13.27
2018-10-16T07:37:55.612Z,11.30
2018-10-16T07:40:23.678Z,11.70
2018-10-16T07:42:51.888Z,12.70
2018-10-16T07:45:20.043Z,11.20
2018-10-16T07:47:48.186Z,10.80
2018-10-16T07:50:16.319Z,11.10
2018-10-16T07:52:44.495Z,10.67
2018-10-16T07:55:13.792Z,10.37
2018-10-16T07:57:42.130Z,11.43
2018-10-16T08:00:11.511Z,10.53
2018-10-16T08:02:40.096Z,11.67
2018-10-16T08:05:09.475Z,10.43
2018-10-16T08:07:37.786Z,11.40
2018-10-16T08:10:07.746Z,11.10
2018-10-16T08:12:36.082Z,10.70
2018-10-16T08:15:04.886Z,10.03
2018-10-16T08:17:33.118Z,11.83
2018-10-16T08:20:01.268Z,11.30
2018-10-16T08:22:29.423Z,10.87
2018-10-16T08:24:57.583Z,11.00
2018-10-16T08:27:25.704Z,10.60
2018-10-16T08:29:53.872Z,12.53
2018-10-16T08:32:21.971Z,11.30
2018-10-16T08:34:50.115Z,12.37
2018-10-16T08:37:33.670Z,12.90
2018-10-16T08:40:01.854Z,12.07
2018-10-16T08:43:54.072Z,12.70
2018-10-16T08:46:33.779Z,11.13
2018-10-16T08:49:13.431Z,11.23
2018-10-16T08:51:43.704Z,12.40
2018-10-16T08:54:11.846Z,11.33
2018-10-16T08:56:39.992Z,14.13
2018-10-16T08:59:08.153Z,16.90
2018-10-16T09:01:36.300Z,11.43
2018-10-16T09:04:04.689Z,13.90
2018-10-16T09:06:33.016Z,11.63
2018-10-16T09:09:01.352Z,16.80
2018-10-16T09:11:29.517Z,12.73
2018-10-16T09:13:57.765Z,11.87
2018-10-16T09:16:25.835Z,13.67
2018-10-16T09:18:53.987Z,13.53
2018-10-16T09:21:22.162Z,11.40
2018-10-16T09:23:50.307Z,11.70
2018-10-16T09:26:18.802Z,11.00
2018-10-16T09:28:46.958Z,11.63
2018-10-16T09:31:15.143Z,13.60
2018-10-16T09:33:43.311Z,13.37
2018-10-16T09:36:11.431Z,14.13
2018-10-16T09:38:39.603Z,12.20
2018-10-16T09:41:08.026Z,15.63
2018-10-16T09:43:36.190Z,11.43
2018-10-16T09:46:04.594Z,12.63
2018-10-16T09:48:32.779Z,11.97
2018-10-16T09:51:00.983Z,12.13
2018-10-16T09:53:29.149Z,13.27
2018-10-16T09:55:57.291Z,13.60
2018-10-16T09:58:25.552Z,12.20
2018-10-16T10:01:57.258Z,12.60
2018-10-16T10:04:25.398Z,13.43
2018-10-16T10:06:53.553Z,14.27
2018-10-16T10:09:21.686Z,12.23
2018-10-16T10:11:49.863Z,11.87
2018-10-16T10:14:17.986Z,12.87
2018-10-16T10:16:46.117Z,14.43
2018-10-16T10:19:14.579Z,12.63
2018-10-16T10:21:42.738Z,13.13
2018-10-16T10:24:10.923Z,14.43
2018-10-16T10:26:39.078Z,14.60
2018-10-16T10:29:07.266Z,12.00
2018-10-16T10:31:35.430Z,12.77
2018-10-16T10:34:03.564Z,13.57
2018-10-16T10:36:31.749Z,14.97
2018-10-16T10:38:59.901Z,14.97
2018-10-16T10:41:28.055Z,13.63
2018-10-16T10:43:56.210Z,12.53
2018-10-16T10:46:24.453Z,12.57
2018-10-16T10:48:52.606Z,15.10
2018-10-16T10:51:21.044Z,14.20
2018-10-16T10:53:48.874Z,12.53
2018-10-16T10:56:16.983Z,12.57
2018-10-16T10:58:45.143Z,12.70
2018-10-16T11:01:13.353Z,15.23
2018-10-16T11:03:41.681Z,13.87
2018-10-16T11:06:09.687Z,15.33
2018-10-16T11:08:37.835Z,16.47
2018-10-16T11:11:05.991Z,13.03
2018-10-16T11:13:34.105Z,15.03
2018-10-16T11:16:02.263Z,16.00
2018-10-16T11:18:30.398Z,15.13
2018-10-16T11:20:58.574Z,14.30
2018-10-16T11:23:26.700Z,13.17
2018-10-16T11:25:54.842Z,13.17
2018-10-16T11:28:22.958Z,13.40
2018-10-16T11:30:51.115Z,16.97
2018-10-16T11:33:19.261Z,14.50
2018-10-16T11:35:47.405Z,15.17
2018-10-16T11:38:15.534Z,12.57
2018-10-16T11:40:43.709Z,15.23
2018-10-16T11:43:11.901Z,15.50
2018-10-16T11:45:40.105Z,13.10
2018-10-16T11:48:08.247Z,13.30
2018-10-16T11:50:36.437Z,14.53
2018-10-16T11:53:04.885Z,12.93
2018-10-16T11:55:33.026Z,16.27
2018-10-16T11:58:01.530Z,18.07
2018-10-16T12:00:29.663Z,14.30
2018-10-16T12:02:57.828Z,16.50
2018-10-16T12:05:26.107Z,13.60
2018-10-16T12:07:54.283Z,14.90
2018-10-16T12:10:22.458Z,13.93
2018-10-16T12:12:50.592Z,14.23
2018-10-16T12:15:18.810Z,15.20
2018-10-16T12:17:52.398Z,13.43
2018-10-16T12:20:28.878Z,12.40
2018-10-16T12:22:57.015Z,14.77
2018-10-16T12:25:25.182Z,13.87
2018-10-16T12:27:53.311Z,15.90
2018-10-16T12:30:21.461Z,15.13
2018-10-16T12:32:49.594Z,13.37
2018-10-16T12:35:17.743Z,15.87
2018-10-16T12:37:45.937Z,12.07
2018-10-16T12:40:14.130Z,12.13
2018-10-16T12:42:42.564Z,14.13
2018-10-16T12:45:10.973Z,16.23
2018-10-16T12:47:39.151Z,15.43
2018-10-16T12:50:07.303Z,15.73
2018-10-16T12:52:35.468Z,12.83
2018-10-16T12:55:03.595Z,12.80
2018-10-16T12:57:31.901Z,12.43
2018-10-16T13:00:00.118Z,14.57
2018-10-16T13:02:28.172Z,12.70
2018-10-16T13:04:56.375Z,15.60
2018-10-16T13:07:29.969Z,14.87
2018-10-16T13:09:58.094Z,16.40
2018-10-16T13:12:26.421Z,12.17
2018-10-16T13:14:54.507Z,11.83
2018-10-16T13:17:22.725Z,12.33
2018-10-16T13:19:50.892Z,12.20
2018-10-16T13:22:19.032Z,13.80
2018-10-16T13:24:47.196Z,15.03
2018-10-16T13:27:15.331Z,10.83
2018-10-16T13:29:43.568Z,11.93
2018-10-16T13:32:11.748Z,12.60
2018-10-16T13:34:39.958Z,12.77
2018-10-16T13:37:08.240Z,13.27
2018-10-16T13:39:36.383Z,11.20
2018-10-16T13:42:04.555Z,13.67
2018-10-16T13:44:32.682Z,11.17
2018-10-16T13:47:00.831Z,12.13
2018-10-16T13:49:28.954Z,10.93
2018-10-16T13:51:57.122Z,13.47
2018-10-16T13:54:25.321Z,11.60
2018-10-16T13:56:53.575Z,12.33
2018-10-16T13:59:21.746Z,11.37
2018-10-16T14:01:49.883Z,11.80
2018-10-16T14:04:18.020Z,11.17
2018-10-16T14:06:46.155Z,11.20
2018-10-16T14:09:14.291Z,10.37
2018-10-16T14:11:42.418Z,13.30
2018-10-16T14:14:10.658Z,11.20
2018-10-16T14:16:38.801Z,12.63
2018-10-16T14:19:06.914Z,11.07
2018-10-16T14:21:35.167Z,12.03
2018-10-16T14:24:03.335Z,11.50
2018-10-16T14:26:31.498Z,10.87
2018-10-16T14:28:59.734Z,11.00
2018-10-16T14:31:27.951Z,12.43
2018-10-16T14:33:56.275Z,10.90
2018-10-16T14:36:24.254Z,11.20
2018-10-16T14:38:52.763Z,12.10
2018-10-16T14:41:20.915Z,11.23
2018-10-16T14:43:49.058Z,11.50
2018-10-16T14:46:17.221Z,11.77
2018-10-16T14:48:45.389Z,11.87
2018-10-16T14:51:13.564Z,11.60
2018-10-16T14:53:41.698Z,11.00
2018-10-16T14:56:09.842Z,12.30
2018-10-16T14:58:38.003Z,10.87
2018-10-16T15:01:06.294Z,11.17
2018-10-16T15:03:34.402Z,10.80
2018-10-16T15:06:02.548Z,11.47
2018-10-16T15:08:30.713Z,12.13
2018-10-16T15:10:58.852Z,11.63
2018-10-16T15:13:27.131Z,12.03
2018-10-16T15:15:55.267Z,11.73
2018-10-16T15:18:23.495Z,10.83
2018-10-16T15:20:51.686Z,12.03
2018-10-16T15:23:19.839Z,12.13
2018-10-16T15:25:48.038Z,11.63
2018-10-16T15:28:16.285Z,12.23
2018-10-16T15:30:44.457Z,10.87
2018-10-16T15:33:12.635Z,12.27
2018-10-16T15:35:40.822Z,11.70
2018-10-16T15:38:08.975Z,11.03
2018-10-16T15:40:37.022Z,11.47
2018-10-16T15:43:05.198Z,11.53
2018-10-16T15:45:33.332Z,11.30
2018-10-16T15:48:01.565Z,12.57
2018-10-16T15:50:29.698Z,11.83
2018-10-16T15:52:57.857Z,11.07
2018-10-16T15:55:26.057Z,10.93
2018-10-16T15:57:54.266Z,10.07
2018-10-16T16:00:22.418Z,12.13
2018-10-16T16:02:50.555Z,10.87
2018-10-16T16:05:18.689Z,10.17
2018-10-16T16:07:46.800Z,10.80
2018-10-16T16:10:15.939Z,11.00
2018-10-16T16:12:44.051Z,10.80
2018-10-16T16:15:13.019Z,12.57
2018-10-16T16:17:41.494Z,12.17
2018-10-16T16:20:11.248Z,11.30
2018-10-16T16:22:39.378Z,11.17
2018-10-16T16:25:08.722Z,12.03
2018-10-16T16:27:37.164Z,11.00
2018-10-16T16:30:06.522Z,11.27
2018-10-16T16:32:34.631Z,11.47
2018-10-16T16:35:02.825Z,10.27
2018-10-16T16:37:30.950Z,10.47
2018-10-16T16:39:59.119Z,10.23
2018-10-16T16:42:27.223Z,10.00
2018-10-16T16:44:55.345Z,10.67
2018-10-16T16:47:23.585Z,13.07
2018-10-16T16:49:51.769Z,10.63
2018-10-16T16:52:19.898Z,11.03
2018-10-16T16:54:48.091Z,11.50
2018-10-16T16:57:16.322Z,11.17
2018-10-16T16:59:44.454Z,13.67
2018-10-16T17:02:12.635Z,10.53
2018-10-16T17:04:40.806Z,10.43
2018-10-16T17:07:08.907Z,10.60
2018-10-16T17:09:37.051Z,11.27
2018-10-16T17:12:05.410Z,10.47
2018-10-16T17:14:33.514Z,10.67
2018-10-16T17:17:01.717Z,10.93
2018-10-16T17:19:29.942Z,11.23
2018-10-16T17:21:58.103Z,10.40
2018-10-16T17:24:26.368Z,11.13
2018-10-16T17:26:54.474Z,10.83
2018-10-16T17:29:22.620Z,11.80
2018-10-16T17:31:50.761Z,10.67
2018-10-16T17:34:18.990Z,11.20
2018-10-16T17:36:47.143Z,11.57
2018-10-16T17:39:15.357Z,11.10
2018-10-16T17:41:43.419Z,11.40
2018-10-16T17:44:11.548Z,10.83
2018-10-16T17:46:40.642Z,10.90
2018-10-16T17:49:08.875Z,11.00
2018-10-16T17:51:37.023Z,10.90
2018-10-16T17:54:05.237Z,10.97
2018-10-16T17:56:33.381Z,10.50
2018-10-16T17:59:01.526Z,11.07
2018-10-16T18:01:29.670Z,11.67
2018-10-16T18:03:57.787Z,12.87
2018-10-16T18:06:25.957Z,11.57
2018-10-16T18:08:54.091Z,11.17
2018-10-16T18:11:22.325Z,11.57
2018-10-16T18:13:50.447Z,11.90
2018-10-16T18:16:18.678Z,12.13
2018-10-16T18:18:46.807Z,11.30
2018-10-16T18:21:14.924Z,11.53
2018-10-16T18:23:43.120Z,11.60
2018-10-16T18:26:11.238Z,10.70
2018-10-16T18:28:39.341Z,11.70
2018-10-16T18:31:07.725Z,12.37
2018-10-16T18:33:35.854Z,11.73
2018-10-16T18:36:04.034Z,12.27
2018-10-16T18:38:32.216Z,11.40
2018-10-16T18:41:00.399Z,11.43
2018-10-16T18:43:28.519Z,11.03
2018-10-16T18:45:56.660Z,12.57
2018-10-16T18:48:24.822Z,13.30
2018-10-16T18:50:53.006Z,11.47
2018-10-16T18:53:21.108Z,12.27
2018-10-16T18:55:49.260Z,12.10
2018-10-16T18:58:17.405Z,11.80
2018-10-16T19:00:45.566Z,13.77
2018-10-16T19:03:13.827Z,11.17
2018-10-16T19:05:41.828Z,11.10
2018-10-16T19:08:09.958Z,11.47
2018-10-16T19:10:38.178Z,12.13
2018-10-16T19:13:06.396Z,11.30
2018-10-16T19:15:34.566Z,11.57
2018-10-16T19:18:02.721Z,11.57
2018-10-16T19:20:30.894Z,12.70
2018-10-16T19:22:59.046Z,12.07
2018-10-16T19:25:27.240Z,11.77
2018-10-16T19:27:55.368Z,11.53
2018-10-16T19:30:23.481Z,12.23
2018-10-16T19:32:51.655Z,12.33
2018-10-16T19:35:19.798Z,12.00
2018-10-16T19:37:48.000Z,11.50
2018-10-16T19:40:16.063Z,11.20
2018-10-16T19:42:44.195Z,11.83
2018-10-16T19:45:12.425Z,11.70
2018-10-16T19:47:40.490Z,12.47
2018-10-16T19:50:09.274Z,12.20
2018-10-16T19:52:37.523Z,12.80
2018-10-16T19:55:05.865Z,12.07
2018-10-16T19:57:34.000Z,12.37
2018-10-16T20:00:02.155Z,12.73
2018-10-16T20:02:30.316Z,13.30
2018-10-16T20:04:58.442Z,13.10
2018-10-16T20:07:26.566Z,12.20
2018-10-16T20:09:54.739Z,12.23
2018-10-16T20:12:22.891Z,12.40
2018-10-16T20:14:51.063Z,11.90
2018-10-16T20:17:19.187Z,12.83
2018-10-16T20:19:47.374Z,12.67
2018-10-16T20:22:15.491Z,13.27
2018-10-16T20:24:43.654Z,12.70
2018-10-16T20:27:11.782Z,15.37
2018-10-16T20:29:40.027Z,13.60
2018-10-16T20:32:08.160Z,13.23
2018-10-16T20:34:36.325Z,13.47
2018-10-16T20:37:04.513Z,12.57
2018-10-16T20:39:32.603Z,13.37
2018-10-16T20:42:00.831Z,13.10
2018-10-16T20:44:28.917Z,13.33
2018-10-16T20:46:57.075Z,13.43
2018-10-16T20:49:25.250Z,14.40
2018-10-16T20:51:53.406Z,14.47
2018-10-16T20:54:21.563Z,14.17
2018-10-16T20:56:49.679Z,14.17
2018-10-16T20:59:17.803Z,13.50
2018-10-16T21:01:45.935Z,13.87
2018-10-16T21:04:14.083Z,13.83
2018-10-16T21:06:42.461Z,13.73
2018-10-16T21:09:10.368Z,13.10
2018-10-16T21:11:38.527Z,13.03
2018-10-16T21:14:06.683Z,13.90
2018-10-16T21:16:34.974Z,12.97
2018-10-16T21:19:03.231Z,13.10
2018-10-16T21:21:31.389Z,13.10
2018-10-16T21:23:59.526Z,12.63
2018-10-16T21:26:27.650Z,12.73
2018-10-16T21:28:55.777Z,14.00
2018-10-16T21:31:23.923Z,14.17
2018-10-16T21:33:52.062Z,13.60
2018-10-16T21:36:20.186Z,14.57
2018-10-16T21:38:48.338Z,14.73
2018-10-16T21:41:16.579Z,14.10
2018-10-16T21:43:44.654Z,14.57
2018-10-16T21:46:12.786Z,14.27
2018-10-16T21:48:40.921Z,14.60
2018-10-16T21:51:09.069Z,12.53
2018-10-16T21:53:37.210Z,13.37
2018-10-16T21:56:05.390Z,14.17
2018-10-16T21:58:33.546Z,13.27
2018-10-16T22:01:07.156Z,13.77
2018-10-16T22:03:35.277Z,14.50
2018-10-16T22:06:03.434Z,13.60
2018-10-16T22:08:31.564Z,13.87
2018-10-16T22:10:59.737Z,13.20
2018-10-16T22:13:27.859Z,13.53
2018-10-16T22:15:56.059Z,13.80
2018-10-16T22:18:24.296Z,13.37
2018-10-16T22:20:52.397Z,13.90
2018-10-16T22:23:20.518Z,13.63
2018-10-16T22:25:48.669Z,14.70
2018-10-16T22:28:16.837Z,15.17
2018-10-16T22:30:44.969Z,14.00
2018-10-16T22:33:13.070Z,14.17
2018-10-16T22:35:41.213Z,13.93
2018-10-16T22:38:09.613Z,14.67
2018-10-16T22:40:37.744Z,13.60
2018-10-16T22:43:06.365Z,14.30
2018-10-16T22:45:34.445Z,13.60
2018-10-16T22:48:02.604Z,14.07
2018-10-16T22:50:30.778Z,14.90
2018-10-16T22:52:58.958Z,14.60
2018-10-16T22:55:27.104Z,14.20
2018-10-16T22:57:55.265Z,14.97
2018-10-16T23:00:23.462Z,15.60
2018-10-16T23:02:51.590Z,13.97
2018-10-16T23:05:19.738Z,13.77
2018-10-16T23:07:47.897Z,14.53
2018-10-16T23:10:16.197Z,14.37
2018-10-16T23:12:44.811Z,14.40
2018-10-16T23:15:12.919Z,13.87
2018-10-16T23:17:41.105Z,14.03
2018-10-16T23:20:10.333Z,14.90
2018-10-16T23:22:38.541Z,15.30
2018-10-16T23:25:06.722Z,14.80
2018-10-16T23:27:35.217Z,14.23
2018-10-16T23:30:03.407Z,13.80
2018-10-16T23:32:31.573Z,14.67
2018-10-16T23:34:59.758Z,13.60
2018-10-16T23:37:27.886Z,13.70
2018-10-16T23:39:56.010Z,13.73
2018-10-16T23:42:24.134Z,13.83
2018-10-16T23:44:52.283Z,14.40
2018-10-16T23:47:20.434Z,14.13
2018-10-16T23:49:48.601Z,14.83
2018-10-16T23:52:16.741Z,14.53
2018-10-16T23:54:44.873Z,14.13
2018-10-16T23:57:12.998Z,14.43
2018-10-16T23:59:41.182Z,13.83
